sensor_id;sensor_type;location;lat;lon;timestamp;temperature;humidity
13798;DHT22;6970;51.340;3.240;2023-09-19T00:01:00;16.80;99.90
13798;DHT22;6970;51.340;3.240;2023-09-19T00:03:28;16.80;99.90
13798;DHT22;6970;51.340;3.240;2023-09-19T00:05:58;16.80;99.90
13798;DHT22;6970;51.340;3.240;2023-09-19T00:08:25;16.80;99.90
13798;DHT22;6970;51.340;3.240;2023-09-19T00:10:54;16.80;99.90
13798;DHT22;6970;51.340;3.240;2023-09-19T00:13:24;16.80;99.90
13798;DHT22;6970;51.340;3.240;2023-09-19T00:15:53;16.90;99.90
13798;DHT22;6970;51.340;3.240;2023-09-19T00:18:26;16.90;99.90
13798;DHT22;6970;51.340;3.240;2023-09-19T00:21:02;16.80;99.90
13798;DHT22;6970;51.340;3.240;2023-09-19T00:23:33;16.90;99.90
13798;DHT22;6970;51.340;3.240;2023-09-19T00:26:04;16.90;99.90
13798;DHT22;6970;51.340;3.240;2023-09-19T00:28:33;16.90;99.90
13798;DHT22;6970;51.340;3.240;2023-09-19T00:31:01;16.90;99.90
13798;DHT22;6970;51.340;3.240;2023-09-19T00:33:29;16.90;99.90
13798;DHT22;6970;51.340;3.240;2023-09-19T00:35:57;17.00;99.90
13798;DHT22;6970;51.340;3.240;2023-09-19T00:38:25;17.00;99.90
13798;DHT22;6970;51.340;3.240;2023-09-19T00:40:54;17.00;99.90
13798;DHT22;6970;51.340;3.240;2023-09-19T00:43:27;17.00;99.90
13798;DHT22;6970;51.340;3.240;2023-09-19T00:45:58;17.00;99.90
13798;DHT22;6970;51.340;3.240;2023-09-19T00:48:30;17.00;99.90
13798;DHT22;6970;51.340;3.240;2023-09-19T00:51:02;17.00;99.90
13798;DHT22;6970;51.340;3.240;2023-09-19T00:53:34;17.00;99.90
13798;DHT22;6970;51.340;3.240;2023-09-19T00:56:04;16.90;99.90
13798;DHT22;6970;51.340;3.240;2023-09-19T00:58:35;17.00;99.90
13798;DHT22;6970;51.340;3.240;2023-09-19T01:01:05;17.00;99.90
13798;DHT22;6970;51.340;3.240;2023-09-19T01:03:37;17.00;99.90
13798;DHT22;6970;51.340;3.240;2023-09-19T01:06:08;16.90;99.90
13798;DHT22;6970;51.340;3.240;2023-09-19T01:08:36;16.80;99.90
13798;DHT22;6970;51.340;3.240;2023-09-19T01:11:14;16.70;99.90
13798;DHT22;6970;51.340;3.240;2023-09-19T01:14:02;16.70;99.90
13798;DHT22;6970;51.340;3.240;2023-09-19T01:16:57;16.60;99.90
13798;DHT22;6970;51.340;3.240;2023-09-19T01:31:31;16.10;99.90
13798;DHT22;6970;51.340;3.240;2023-09-19T01:34:03;16.00;99.90
13798;DHT22;6970;51.340;3.240;2023-09-19T01:36:38;16.00;99.90
13798;DHT22;6970;51.340;3.240;2023-09-19T01:39:11;15.90;99.90
13798;DHT22;6970;51.340;3.240;2023-09-19T01:42:05;15.90;99.90
13798;DHT22;6970;51.340;3.240;2023-09-19T01:47:13;15.70;99.90
13798;DHT22;6970;51.340;3.240;2023-09-19T01:53:10;15.70;99.90
13798;DHT22;6970;51.340;3.240;2023-09-19T01:55:45;15.60;99.90
13798;DHT22;6970;51.340;3.240;2023-09-19T02:00:58;15.50;99.90
13798;DHT22;6970;51.340;3.240;2023-09-19T02:03:27;15.50;99.90
13798;DHT22;6970;51.340;3.240;2023-09-19T02:05:55;15.50;99.90
13798;DHT22;6970;51.340;3.240;2023-09-19T02:08:23;15.50;99.90
13798;DHT22;6970;51.340;3.240;2023-09-19T02:10:53;15.40;99.90
13798;DHT22;6970;51.340;3.240;2023-09-19T02:13:21;15.40;99.90
13798;DHT22;6970;51.340;3.240;2023-09-19T02:15:51;15.40;99.90
13798;DHT22;6970;51.340;3.240;2023-09-19T02:18:18;15.40;99.90
13798;DHT22;6970;51.340;3.240;2023-09-19T02:20:45;15.40;99.90
13798;DHT22;6970;51.340;3.240;2023-09-19T02:23:13;15.40;99.90
13798;DHT22;6970;51.340;3.240;2023-09-19T02:25:40;15.40;99.90
13798;DHT22;6970;51.340;3.240;2023-09-19T02:28:07;15.50;99.90
13798;DHT22;6970;51.340;3.240;2023-09-19T02:30:36;15.50;99.90
13798;DHT22;6970;51.340;3.240;2023-09-19T02:33:03;15.50;99.90
13798;DHT22;6970;51.340;3.240;2023-09-19T02:35:32;15.50;99.90
13798;DHT22;6970;51.340;3.240;2023-09-19T02:38:03;15.50;99.90
13798;DHT22;6970;51.340;3.240;2023-09-19T02:40:33;15.40;99.90
13798;DHT22;6970;51.340;3.240;2023-09-19T02:43:03;15.40;99.90
13798;DHT22;6970;51.340;3.240;2023-09-19T02:45:31;15.40;99.90
13798;DHT22;6970;51.340;3.240;2023-09-19T02:47:59;15.30;99.90
13798;DHT22;6970;51.340;3.240;2023-09-19T02:50:28;15.30;99.90
13798;DHT22;6970;51.340;3.240;2023-09-19T02:52:55;15.20;99.90
13798;DHT22;6970;51.340;3.240;2023-09-19T02:55:23;15.20;99.90
13798;DHT22;6970;51.340;3.240;2023-09-19T02:57:54;15.20;99.90
13798;DHT22;6970;51.340;3.240;2023-09-19T03:00:26;15.20;99.90
13798;DHT22;6970;51.340;3.240;2023-09-19T03:02:59;15.20;99.90
13798;DHT22;6970;51.340;3.240;2023-09-19T03:05:29;15.10;99.90
13798;DHT22;6970;51.340;3.240;2023-09-19T03:08:00;15.10;99.90
13798;DHT22;6970;51.340;3.240;2023-09-19T03:10:28;15.10;99.90
13798;DHT22;6970;51.340;3.240;2023-09-19T03:12:58;15.10;99.90
13798;DHT22;6970;51.340;3.240;2023-09-19T03:15:35;15.10;99.90
13798;DHT22;6970;51.340;3.240;2023-09-19T03:18:04;15.10;99.90
13798;DHT22;6970;51.340;3.240;2023-09-19T03:20:33;15.10;99.90
13798;DHT22;6970;51.340;3.240;2023-09-19T03:23:04;15.10;99.90
13798;DHT22;6970;51.340;3.240;2023-09-19T03:25:35;15.10;99.90
13798;DHT22;6970;51.340;3.240;2023-09-19T03:28:03;15.10;99.90
13798;DHT22;6970;51.340;3.240;2023-09-19T03:30:34;15.10;99.90
13798;DHT22;6970;51.340;3.240;2023-09-19T03:33:02;15.10;99.90
13798;DHT22;6970;51.340;3.240;2023-09-19T03:35:32;15.10;99.90
13798;DHT22;6970;51.340;3.240;2023-09-19T03:37:59;15.10;99.90
13798;DHT22;6970;51.340;3.240;2023-09-19T03:40:30;15.00;99.90
13798;DHT22;6970;51.340;3.240;2023-09-19T03:43:00;15.00;99.90
13798;DHT22;6970;51.340;3.240;2023-09-19T03:45:27;15.10;99.90
13798;DHT22;6970;51.340;3.240;2023-09-19T03:47:55;15.00;99.90
13798;DHT22;6970;51.340;3.240;2023-09-19T03:50:26;15.10;99.90
13798;DHT22;6970;51.340;3.240;2023-09-19T03:52:59;15.10;99.90
13798;DHT22;6970;51.340;3.240;2023-09-19T03:55:27;15.10;99.90
13798;DHT22;6970;51.340;3.240;2023-09-19T03:57:54;15.10;99.90
13798;DHT22;6970;51.340;3.240;2023-09-19T04:00:22;15.10;99.90
13798;DHT22;6970;51.340;3.240;2023-09-19T04:02:54;15.10;99.90
13798;DHT22;6970;51.340;3.240;2023-09-19T04:05:23;15.10;99.90
13798;DHT22;6970;51.340;3.240;2023-09-19T04:08:03;15.10;99.90
13798;DHT22;6970;51.340;3.240;2023-09-19T04:10:33;15.00;99.90
13798;DHT22;6970;51.340;3.240;2023-09-19T04:13:01;15.00;99.90
13798;DHT22;6970;51.340;3.240;2023-09-19T04:15:28;15.00;99.90
13798;DHT22;6970;51.340;3.240;2023-09-19T04:17:59;15.00;99.90
13798;DHT22;6970;51.340;3.240;2023-09-19T04:20:26;15.00;99.90
13798;DHT22;6970;51.340;3.240;2023-09-19T04:22:57;15.00;99.90
13798;DHT22;6970;51.340;3.240;2023-09-19T04:25:26;14.90;99.90
13798;DHT22;6970;51.340;3.240;2023-09-19T04:27:57;15.00;99.90
13798;DHT22;6970;51.340;3.240;2023-09-19T04:30:25;15.00;99.90
13798;DHT22;6970;51.340;3.240;2023-09-19T04:32:52;15.00;99.90
13798;DHT22;6970;51.340;3.240;2023-09-19T04:35:21;15.00;99.90
13798;DHT22;6970;51.340;3.240;2023-09-19T04:37:51;15.00;99.90
13798;DHT22;6970;51.340;3.240;2023-09-19T04:40:23;15.00;99.90
13798;DHT22;6970;51.340;3.240;2023-09-19T04:42:57;15.00;99.90
13798;DHT22;6970;51.340;3.240;2023-09-19T04:45:27;15.00;99.90
13798;DHT22;6970;51.340;3.240;2023-09-19T04:47:58;14.90;99.90
13798;DHT22;6970;51.340;3.240;2023-09-19T04:50:25;14.90;99.90
13798;DHT22;6970;51.340;3.240;2023-09-19T04:52:57;14.90;99.90
13798;DHT22;6970;51.340;3.240;2023-09-19T04:55:25;14.90;99.90
13798;DHT22;6970;51.340;3.240;2023-09-19T04:57:53;14.90;99.90
13798;DHT22;6970;51.340;3.240;2023-09-19T05:00:23;14.90;99.90
13798;DHT22;6970;51.340;3.240;2023-09-19T05:02:55;14.90;99.90
13798;DHT22;6970;51.340;3.240;2023-09-19T05:05:23;14.90;99.90
13798;DHT22;6970;51.340;3.240;2023-09-19T05:07:55;14.90;99.90
13798;DHT22;6970;51.340;3.240;2023-09-19T05:10:24;14.80;99.90
13798;DHT22;6970;51.340;3.240;2023-09-19T05:12:55;14.90;99.90
13798;DHT22;6970;51.340;3.240;2023-09-19T05:15:22;14.90;99.90
13798;DHT22;6970;51.340;3.240;2023-09-19T05:17:50;14.90;99.90
13798;DHT22;6970;51.340;3.240;2023-09-19T05:20:23;14.90;99.90
13798;DHT22;6970;51.340;3.240;2023-09-19T05:23:02;14.80;99.90
13798;DHT22;6970;51.340;3.240;2023-09-19T05:25:33;14.80;99.90
13798;DHT22;6970;51.340;3.240;2023-09-19T05:28:08;14.80;99.90
13798;DHT22;6970;51.340;3.240;2023-09-19T05:30:37;14.80;99.90
13798;DHT22;6970;51.340;3.240;2023-09-19T05:33:13;14.80;99.90
13798;DHT22;6970;51.340;3.240;2023-09-19T05:35:41;14.80;99.90
13798;DHT22;6970;51.340;3.240;2023-09-19T05:38:09;14.80;99.90
13798;DHT22;6970;51.340;3.240;2023-09-19T05:40:36;14.80;99.90
13798;DHT22;6970;51.340;3.240;2023-09-19T05:43:05;14.80;99.90
13798;DHT22;6970;51.340;3.240;2023-09-19T05:45:32;14.80;99.90
13798;DHT22;6970;51.340;3.240;2023-09-19T05:48:11;14.80;99.90
13798;DHT22;6970;51.340;3.240;2023-09-19T05:50:44;14.80;99.90
13798;DHT22;6970;51.340;3.240;2023-09-19T05:53:19;14.80;99.90
13798;DHT22;6970;51.340;3.240;2023-09-19T05:55:49;14.80;99.90
13798;DHT22;6970;51.340;3.240;2023-09-19T05:58:19;14.80;99.90
13798;DHT22;6970;51.340;3.240;2023-09-19T06:00:48;14.80;99.90
13798;DHT22;6970;51.340;3.240;2023-09-19T06:03:18;14.80;99.90
13798;DHT22;6970;51.340;3.240;2023-09-19T06:05:49;14.80;99.90
13798;DHT22;6970;51.340;3.240;2023-09-19T06:08:16;14.80;99.90
13798;DHT22;6970;51.340;3.240;2023-09-19T06:10:46;14.80;99.90
13798;DHT22;6970;51.340;3.240;2023-09-19T06:13:16;14.80;99.90
13798;DHT22;6970;51.340;3.240;2023-09-19T06:15:44;14.80;99.90
13798;DHT22;6970;51.340;3.240;2023-09-19T06:18:14;14.80;99.90
13798;DHT22;6970;51.340;3.240;2023-09-19T06:20:48;14.80;99.90
13798;DHT22;6970;51.340;3.240;2023-09-19T06:23:21;14.90;99.90
13798;DHT22;6970;51.340;3.240;2023-09-19T06:25:51;14.90;99.90
13798;DHT22;6970;51.340;3.240;2023-09-19T06:28:21;15.00;99.90
13798;DHT22;6970;51.340;3.240;2023-09-19T06:30:55;15.00;99.90
13798;DHT22;6970;51.340;3.240;2023-09-19T06:33:25;15.00;99.90
13798;DHT22;6970;51.340;3.240;2023-09-19T06:35:54;15.10;99.90
13798;DHT22;6970;51.340;3.240;2023-09-19T06:38:26;15.20;99.90
13798;DHT22;6970;51.340;3.240;2023-09-19T06:40:53;15.20;99.90
13798;DHT22;6970;51.340;3.240;2023-09-19T06:43:24;15.30;99.90
13798;DHT22;6970;51.340;3.240;2023-09-19T06:45:51;15.40;99.90
13798;DHT22;6970;51.340;3.240;2023-09-19T06:48:23;15.50;99.90
13798;DHT22;6970;51.340;3.240;2023-09-19T06:50:55;15.60;99.90
13798;DHT22;6970;51.340;3.240;2023-09-19T06:53:24;15.70;99.90
13798;DHT22;6970;51.340;3.240;2023-09-19T06:55:53;15.70;99.90
13798;DHT22;6970;51.340;3.240;2023-09-19T06:58:24;15.80;99.90
13798;DHT22;6970;51.340;3.240;2023-09-19T07:00:54;15.80;99.90
13798;DHT22;6970;51.340;3.240;2023-09-19T07:03:22;15.70;99.90
13798;DHT22;6970;51.340;3.240;2023-09-19T07:05:52;15.80;99.90
13798;DHT22;6970;51.340;3.240;2023-09-19T07:08:22;15.80;99.90
13798;DHT22;6970;51.340;3.240;2023-09-19T07:10:50;15.80;99.90
13798;DHT22;6970;51.340;3.240;2023-09-19T07:13:19;15.80;99.90
13798;DHT22;6970;51.340;3.240;2023-09-19T07:15:48;15.80;99.90
13798;DHT22;6970;51.340;3.240;2023-09-19T07:18:18;15.80;99.90
13798;DHT22;6970;51.340;3.240;2023-09-19T07:20:49;15.80;99.90
13798;DHT22;6970;51.340;3.240;2023-09-19T07:23:20;15.90;99.90
13798;DHT22;6970;51.340;3.240;2023-09-19T07:25:50;16.00;99.90
13798;DHT22;6970;51.340;3.240;2023-09-19T07:28:21;16.10;99.90
13798;DHT22;6970;51.340;3.240;2023-09-19T07:30:50;16.20;99.90
13798;DHT22;6970;51.340;3.240;2023-09-19T07:33:17;16.30;99.90
13798;DHT22;6970;51.340;3.240;2023-09-19T07:35:50;16.40;99.90
13798;DHT22;6970;51.340;3.240;2023-09-19T07:38:18;16.50;99.90
13798;DHT22;6970;51.340;3.240;2023-09-19T07:40:47;16.50;99.90
13798;DHT22;6970;51.340;3.240;2023-09-19T07:43:15;16.70;99.90
13798;DHT22;6970;51.340;3.240;2023-09-19T07:45:42;16.90;99.90
13798;DHT22;6970;51.340;3.240;2023-09-19T07:48:13;17.00;99.90
13798;DHT22;6970;51.340;3.240;2023-09-19T07:50:45;17.20;99.90
13798;DHT22;6970;51.340;3.240;2023-09-19T07:53:13;17.40;99.90
13798;DHT22;6970;51.340;3.240;2023-09-19T07:55:41;17.50;99.90
13798;DHT22;6970;51.340;3.240;2023-09-19T07:58:12;17.60;99.90
13798;DHT22;6970;51.340;3.240;2023-09-19T08:00:43;17.60;99.90
13798;DHT22;6970;51.340;3.240;2023-09-19T08:03:11;17.50;99.90
13798;DHT22;6970;51.340;3.240;2023-09-19T08:05:44;17.40;99.90
13798;DHT22;6970;51.340;3.240;2023-09-19T08:08:15;17.40;99.90
13798;DHT22;6970;51.340;3.240;2023-09-19T08:10:42;17.30;99.90
13798;DHT22;6970;51.340;3.240;2023-09-19T08:13:13;17.20;99.90
13798;DHT22;6970;51.340;3.240;2023-09-19T08:15:48;17.10;99.90
13798;DHT22;6970;51.340;3.240;2023-09-19T08:18:17;17.00;99.90
13798;DHT22;6970;51.340;3.240;2023-09-19T08:20:50;17.00;99.90
13798;DHT22;6970;51.340;3.240;2023-09-19T08:23:20;17.30;99.90
13798;DHT22;6970;51.340;3.240;2023-09-19T08:25:48;17.90;99.90
13798;DHT22;6970;51.340;3.240;2023-09-19T08:28:17;18.40;99.90
13798;DHT22;6970;51.340;3.240;2023-09-19T08:30:54;19.10;99.90
13798;DHT22;6970;51.340;3.240;2023-09-19T08:33:22;19.80;99.90
13798;DHT22;6970;51.340;3.240;2023-09-19T08:35:52;20.00;99.90
13798;DHT22;6970;51.340;3.240;2023-09-19T08:38:22;19.80;99.90
13798;DHT22;6970;51.340;3.240;2023-09-19T08:40:52;19.40;99.90
13798;DHT22;6970;51.340;3.240;2023-09-19T08:43:21;19.10;99.90
13798;DHT22;6970;51.340;3.240;2023-09-19T08:45:53;18.90;99.90
13798;DHT22;6970;51.340;3.240;2023-09-19T08:48:27;18.70;99.90
13798;DHT22;6970;51.340;3.240;2023-09-19T08:51:06;18.70;99.90
13798;DHT22;6970;51.340;3.240;2023-09-19T08:56:09;18.40;99.90
13798;DHT22;6970;51.340;3.240;2023-09-19T08:58:51;18.30;99.90
13798;DHT22;6970;51.340;3.240;2023-09-19T09:01:21;18.20;99.90
13798;DHT22;6970;51.340;3.240;2023-09-19T09:03:55;18.20;99.90
13798;DHT22;6970;51.340;3.240;2023-09-19T09:06:25;18.60;99.90
13798;DHT22;6970;51.340;3.240;2023-09-19T09:08:57;19.70;99.90
13798;DHT22;6970;51.340;3.240;2023-09-19T09:11:26;21.20;99.90
13798;DHT22;6970;51.340;3.240;2023-09-19T09:13:55;22.40;99.90
13798;DHT22;6970;51.340;3.240;2023-09-19T09:16:23;23.30;99.90
13798;DHT22;6970;51.340;3.240;2023-09-19T09:18:56;24.00;99.90
13798;DHT22;6970;51.340;3.240;2023-09-19T09:21:27;24.20;99.90
13798;DHT22;6970;51.340;3.240;2023-09-19T09:23:55;24.40;99.90
13798;DHT22;6970;51.340;3.240;2023-09-19T09:26:44;24.20;99.40
13798;DHT22;6970;51.340;3.240;2023-09-19T09:29:15;23.40;99.90
13798;DHT22;6970;51.340;3.240;2023-09-19T09:31:47;23.30;99.90
13798;DHT22;6970;51.340;3.240;2023-09-19T09:34:18;23.20;99.90
13798;DHT22;6970;51.340;3.240;2023-09-19T09:36:51;23.00;99.90
13798;DHT22;6970;51.340;3.240;2023-09-19T09:39:35;22.30;99.90
13798;DHT22;6970;51.340;3.240;2023-09-19T09:42:04;21.90;99.90
13798;DHT22;6970;51.340;3.240;2023-09-19T09:44:33;21.40;99.90
13798;DHT22;6970;51.340;3.240;2023-09-19T09:47:03;20.90;99.90
13798;DHT22;6970;51.340;3.240;2023-09-19T09:49:50;20.50;99.90
13798;DHT22;6970;51.340;3.240;2023-09-19T09:52:23;20.00;99.90
13798;DHT22;6970;51.340;3.240;2023-09-19T09:55:02;19.80;99.90
13798;DHT22;6970;51.340;3.240;2023-09-19T09:57:37;19.80;99.90
13798;DHT22;6970;51.340;3.240;2023-09-19T10:00:10;20.30;99.90
13798;DHT22;6970;51.340;3.240;2023-09-19T10:02:43;20.80;99.90
13798;DHT22;6970;51.340;3.240;2023-09-19T10:05:21;21.90;99.90
13798;DHT22;6970;51.340;3.240;2023-09-19T10:08:10;23.20;99.90
13798;DHT22;6970;51.340;3.240;2023-09-19T10:10:43;23.80;99.90
13798;DHT22;6970;51.340;3.240;2023-09-19T10:13:16;23.30;99.90
13798;DHT22;6970;51.340;3.240;2023-09-19T10:15:51;22.60;99.90
13798;DHT22;6970;51.340;3.240;2023-09-19T10:18:26;22.00;99.90
13798;DHT22;6970;51.340;3.240;2023-09-19T10:20:58;21.80;99.90
13798;DHT22;6970;51.340;3.240;2023-09-19T10:23:29;21.70;99.90
13798;DHT22;6970;51.340;3.240;2023-09-19T10:26:04;21.70;99.90
13798;DHT22;6970;51.340;3.240;2023-09-19T10:28:34;21.80;99.90
13798;DHT22;6970;51.340;3.240;2023-09-19T10:31:02;21.70;99.90
13798;DHT22;6970;51.340;3.240;2023-09-19T10:33:35;21.40;99.90
13798;DHT22;6970;51.340;3.240;2023-09-19T10:36:07;21.10;99.90
13798;DHT22;6970;51.340;3.240;2023-09-19T10:38:41;20.80;99.90
13798;DHT22;6970;51.340;3.240;2023-09-19T10:41:10;20.50;99.90
13798;DHT22;6970;51.340;3.240;2023-09-19T10:43:42;20.50;99.90
13798;DHT22;6970;51.340;3.240;2023-09-19T10:46:15;20.30;99.90
13798;DHT22;6970;51.340;3.240;2023-09-19T10:48:45;20.00;99.90
13798;DHT22;6970;51.340;3.240;2023-09-19T10:51:23;19.80;99.90
13798;DHT22;6970;51.340;3.240;2023-09-19T10:53:55;19.60;99.90
13798;DHT22;6970;51.340;3.240;2023-09-19T10:56:35;19.40;99.90
13798;DHT22;6970;51.340;3.240;2023-09-19T10:59:12;19.40;99.90
13798;DHT22;6970;51.340;3.240;2023-09-19T11:01:46;19.30;99.90
13798;DHT22;6970;51.340;3.240;2023-09-19T11:07:12;19.20;99.90
13798;DHT22;6970;51.340;3.240;2023-09-19T11:09:54;19.10;99.90
13798;DHT22;6970;51.340;3.240;2023-09-19T11:15:11;18.80;99.90
13798;DHT22;6970;51.340;3.240;2023-09-19T11:17:59;18.70;99.90
13798;DHT22;6970;51.340;3.240;2023-09-19T11:20:30;18.60;99.90
13798;DHT22;6970;51.340;3.240;2023-09-19T11:25:44;18.60;99.90
13798;DHT22;6970;51.340;3.240;2023-09-19T11:30:53;18.60;99.90
13798;DHT22;6970;51.340;3.240;2023-09-19T11:33:39;18.70;99.90
13798;DHT22;6970;51.340;3.240;2023-09-19T11:36:17;18.70;99.90
13798;DHT22;6970;51.340;3.240;2023-09-19T11:46:54;19.30;99.90
13798;DHT22;6970;51.340;3.240;2023-09-19T11:49:32;19.90;99.90
13798;DHT22;6970;51.340;3.240;2023-09-19T11:52:03;20.50;99.90
13798;DHT22;6970;51.340;3.240;2023-09-19T11:54:40;21.00;99.90
13798;DHT22;6970;51.340;3.240;2023-09-19T11:57:09;21.30;99.90
13798;DHT22;6970;51.340;3.240;2023-09-19T11:59:38;21.30;99.90
13798;DHT22;6970;51.340;3.240;2023-09-19T12:02:11;21.20;99.90
13798;DHT22;6970;51.340;3.240;2023-09-19T12:04:44;21.10;99.90
13798;DHT22;6970;51.340;3.240;2023-09-19T12:07:17;20.90;99.90
13798;DHT22;6970;51.340;3.240;2023-09-19T12:09:51;20.90;99.90
13798;DHT22;6970;51.340;3.240;2023-09-19T12:12:29;20.90;99.90
13798;DHT22;6970;51.340;3.240;2023-09-19T12:14:58;20.90;99.90
13798;DHT22;6970;51.340;3.240;2023-09-19T12:17:38;20.90;99.90
13798;DHT22;6970;51.340;3.240;2023-09-19T12:20:12;21.00;99.90
13798;DHT22;6970;51.340;3.240;2023-09-19T12:22:46;21.10;99.90
13798;DHT22;6970;51.340;3.240;2023-09-19T12:25:16;21.10;99.90
13798;DHT22;6970;51.340;3.240;2023-09-19T12:27:48;21.10;99.90
13798;DHT22;6970;51.340;3.240;2023-09-19T12:30:20;20.90;99.90
13798;DHT22;6970;51.340;3.240;2023-09-19T12:32:57;20.60;99.90
13798;DHT22;6970;51.340;3.240;2023-09-19T12:35:35;20.40;99.90
13798;DHT22;6970;51.340;3.240;2023-09-19T12:38:03;20.20;99.90
13798;DHT22;6970;51.340;3.240;2023-09-19T12:40:34;20.10;99.90
13798;DHT22;6970;51.340;3.240;2023-09-19T12:43:05;20.00;99.90
13798;DHT22;6970;51.340;3.240;2023-09-19T12:45:33;19.90;99.90
13798;DHT22;6970;51.340;3.240;2023-09-19T12:48:24;19.80;99.90
13798;DHT22;6970;51.340;3.240;2023-09-19T12:51:12;19.80;99.90
13798;DHT22;6970;51.340;3.240;2023-09-19T12:53:43;19.80;99.90
13798;DHT22;6970;51.340;3.240;2023-09-19T12:56:16;19.70;99.90
13798;DHT22;6970;51.340;3.240;2023-09-19T13:01:25;19.70;99.90
13798;DHT22;6970;51.340;3.240;2023-09-19T13:04:19;19.60;99.90
13798;DHT22;6970;51.340;3.240;2023-09-19T13:06:51;19.60;99.90
13798;DHT22;6970;51.340;3.240;2023-09-19T13:09:22;19.60;99.90
13798;DHT22;6970;51.340;3.240;2023-09-19T13:11:51;19.70;99.90
13798;DHT22;6970;51.340;3.240;2023-09-19T13:14:23;19.70;99.90
13798;DHT22;6970;51.340;3.240;2023-09-19T13:17:08;19.80;99.90
13798;DHT22;6970;51.340;3.240;2023-09-19T13:19:49;20.00;99.90
13798;DHT22;6970;51.340;3.240;2023-09-19T13:25:17;20.40;99.90
13798;DHT22;6970;51.340;3.240;2023-09-19T13:27:54;20.50;99.90
13798;DHT22;6970;51.340;3.240;2023-09-19T13:30:27;20.60;99.90
13798;DHT22;6970;51.340;3.240;2023-09-19T13:33:11;20.70;99.90
13798;DHT22;6970;51.340;3.240;2023-09-19T13:35:41;20.80;99.90
13798;DHT22;6970;51.340;3.240;2023-09-19T13:38:09;20.80;99.90
13798;DHT22;6970;51.340;3.240;2023-09-19T13:40:38;20.70;99.90
13798;DHT22;6970;51.340;3.240;2023-09-19T13:43:09;20.50;99.90
13798;DHT22;6970;51.340;3.240;2023-09-19T13:45:40;20.40;99.90
13798;DHT22;6970;51.340;3.240;2023-09-19T13:48:09;20.30;99.90
13798;DHT22;6970;51.340;3.240;2023-09-19T13:50:40;20.20;99.90
13798;DHT22;6970;51.340;3.240;2023-09-19T13:53:13;20.10;99.90
13798;DHT22;6970;51.340;3.240;2023-09-19T13:55:43;20.10;99.90
13798;DHT22;6970;51.340;3.240;2023-09-19T13:58:13;20.20;99.90
13798;DHT22;6970;51.340;3.240;2023-09-19T14:00:44;20.20;99.90
13798;DHT22;6970;51.340;3.240;2023-09-19T14:03:13;20.30;99.90
13798;DHT22;6970;51.340;3.240;2023-09-19T14:05:46;20.30;99.90
13798;DHT22;6970;51.340;3.240;2023-09-19T14:08:16;20.20;99.90
13798;DHT22;6970;51.340;3.240;2023-09-19T14:10:46;20.20;99.90
13798;DHT22;6970;51.340;3.240;2023-09-19T14:13:18;20.20;99.90
13798;DHT22;6970;51.340;3.240;2023-09-19T14:15:49;20.20;99.90
13798;DHT22;6970;51.340;3.240;2023-09-19T14:18:16;20.00;99.90
13798;DHT22;6970;51.340;3.240;2023-09-19T14:20:43;20.00;99.90
13798;DHT22;6970;51.340;3.240;2023-09-19T14:23:12;19.90;99.90
13798;DHT22;6970;51.340;3.240;2023-09-19T14:25:40;19.80;99.90
13798;DHT22;6970;51.340;3.240;2023-09-19T14:28:11;19.80;99.90
13798;DHT22;6970;51.340;3.240;2023-09-19T14:30:38;19.70;99.90
13798;DHT22;6970;51.340;3.240;2023-09-19T14:33:08;19.70;99.90
13798;DHT22;6970;51.340;3.240;2023-09-19T14:35:39;19.60;99.90
13798;DHT22;6970;51.340;3.240;2023-09-19T14:38:14;19.50;99.90
13798;DHT22;6970;51.340;3.240;2023-09-19T14:40:42;19.40;99.90
13798;DHT22;6970;51.340;3.240;2023-09-19T14:43:09;19.40;99.90
13798;DHT22;6970;51.340;3.240;2023-09-19T14:45:36;19.30;99.90
13798;DHT22;6970;51.340;3.240;2023-09-19T14:48:05;19.40;99.90
13798;DHT22;6970;51.340;3.240;2023-09-19T14:50:32;19.40;99.90
13798;DHT22;6970;51.340;3.240;2023-09-19T14:52:59;19.40;99.90
13798;DHT22;6970;51.340;3.240;2023-09-19T14:55:29;19.40;99.90
13798;DHT22;6970;51.340;3.240;2023-09-19T14:58:01;19.30;99.90
13798;DHT22;6970;51.340;3.240;2023-09-19T15:00:29;19.30;99.90
13798;DHT22;6970;51.340;3.240;2023-09-19T15:02:57;19.30;99.90
13798;DHT22;6970;51.340;3.240;2023-09-19T15:05:24;19.30;99.90
13798;DHT22;6970;51.340;3.240;2023-09-19T15:07:55;19.30;99.90
13798;DHT22;6970;51.340;3.240;2023-09-19T15:10:23;19.20;99.90
13798;DHT22;6970;51.340;3.240;2023-09-19T15:12:53;19.20;99.90
13798;DHT22;6970;51.340;3.240;2023-09-19T15:15:21;19.20;99.90
13798;DHT22;6970;51.340;3.240;2023-09-19T15:17:51;19.20;99.90
13798;DHT22;6970;51.340;3.240;2023-09-19T15:20:20;19.20;99.90
13798;DHT22;6970;51.340;3.240;2023-09-19T15:22:47;19.20;99.90
13798;DHT22;6970;51.340;3.240;2023-09-19T15:25:18;19.20;99.90
13798;DHT22;6970;51.340;3.240;2023-09-19T15:27:46;19.20;99.90
13798;DHT22;6970;51.340;3.240;2023-09-19T15:30:15;19.20;99.90
13798;DHT22;6970;51.340;3.240;2023-09-19T15:32:42;19.20;99.90
13798;DHT22;6970;51.340;3.240;2023-09-19T15:35:09;19.10;99.90
13798;DHT22;6970;51.340;3.240;2023-09-19T15:37:42;19.10;99.90
13798;DHT22;6970;51.340;3.240;2023-09-19T15:40:16;19.10;99.90
13798;DHT22;6970;51.340;3.240;2023-09-19T15:42:44;19.10;99.90
13798;DHT22;6970;51.340;3.240;2023-09-19T15:45:13;19.10;99.90
13798;DHT22;6970;51.340;3.240;2023-09-19T15:47:43;19.10;99.90
13798;DHT22;6970;51.340;3.240;2023-09-19T15:50:11;19.00;99.90
13798;DHT22;6970;51.340;3.240;2023-09-19T15:52:41;18.90;99.90
13798;DHT22;6970;51.340;3.240;2023-09-19T15:55:09;18.90;99.90
13798;DHT22;6970;51.340;3.240;2023-09-19T15:57:38;18.80;99.90
13798;DHT22;6970;51.340;3.240;2023-09-19T16:00:06;18.70;99.90
13798;DHT22;6970;51.340;3.240;2023-09-19T16:02:40;18.70;99.90
13798;DHT22;6970;51.340;3.240;2023-09-19T16:05:08;18.60;99.90
13798;DHT22;6970;51.340;3.240;2023-09-19T16:07:37;18.60;99.90
13798;DHT22;6970;51.340;3.240;2023-09-19T16:10:05;18.50;99.90
13798;DHT22;6970;51.340;3.240;2023-09-19T16:12:36;18.40;99.90
13798;DHT22;6970;51.340;3.240;2023-09-19T16:15:04;18.30;99.90
13798;DHT22;6970;51.340;3.240;2023-09-19T16:17:31;18.10;99.90
13798;DHT22;6970;51.340;3.240;2023-09-19T16:19:58;17.90;99.90
13798;DHT22;6970;51.340;3.240;2023-09-19T16:22:28;17.80;99.90
13798;DHT22;6970;51.340;3.240;2023-09-19T16:24:58;17.70;99.90
13798;DHT22;6970;51.340;3.240;2023-09-19T16:27:25;17.60;99.90
13798;DHT22;6970;51.340;3.240;2023-09-19T16:29:55;17.50;99.90
13798;DHT22;6970;51.340;3.240;2023-09-19T16:32:22;17.40;99.90
13798;DHT22;6970;51.340;3.240;2023-09-19T16:34:52;17.40;99.90
13798;DHT22;6970;51.340;3.240;2023-09-19T16:37:20;17.30;99.90
13798;DHT22;6970;51.340;3.240;2023-09-19T16:39:48;17.30;99.90
13798;DHT22;6970;51.340;3.240;2023-09-19T16:42:18;17.30;99.90
13798;DHT22;6970;51.340;3.240;2023-09-19T16:44:49;17.30;99.90
13798;DHT22;6970;51.340;3.240;2023-09-19T16:47:18;17.30;99.90
13798;DHT22;6970;51.340;3.240;2023-09-19T16:49:47;17.30;99.90
13798;DHT22;6970;51.340;3.240;2023-09-19T16:52:14;17.20;99.90
13798;DHT22;6970;51.340;3.240;2023-09-19T16:54:43;17.20;99.90
13798;DHT22;6970;51.340;3.240;2023-09-19T16:57:14;17.20;99.90